Aéroport int. de Vancouver, Colombie-Britannique

Conditions des dernières 24 heures

Ce tableau est un sommaire des conditions météo couvrant les dernières 24 heures. Ce sommaire inclut les paramètres suivants: température, humidité, point de rosée, direction et vitesse du vent, pression barométrique, facteur de refroidissement éolien ou indice humidex.
Date / Heure
(HAP)
Conditions Temp (°F) Humidite (%) Point de rose (°F) Vent (mph) Pression (pouces) Vis (mi) Humidex
29 juillet 2014
11:00 Ensoleillé 72 66 60 SO 8 30.2 30 80
10:00 Ensoleillé 69 74 61 SO 7 30.1 30 78
9:00 Ensoleillé 68 71 58 SO 4 30.1 30 *
8:00 Ensoleillé 66 72 57 SSE 3 30.1 30 *
7:00 Ensoleillé 63 77 55 ESE 4 30.1 30 *
6:00 Ensoleillé 61 77 54 E 4 30.1 30 *
5:00 Dégagé 60   82 54 E 5 30.1 20 *
4:00 Dégagé 61 85 57 SE 4 30.1 15 *
3:00 Dégagé 62 86 58 SE 4 30.1 15 *
2:00 Dégagé 62 85 57 E 6 30.1 15 *
1:00 Dégagé 64 80 58 E 5 30.1 15 *
0:00 Dégagé 66 72 57 E 6 30.1 15 *
28 juillet 2014
23:00 Dégagé 67 72 58 E 7 30.1 20 *
22:00 Généralement dégagé 68 70 58 E 11 30.1 30 *
21:00 Généralement dégagé 74 58 59 N 2 30.1 30 81
20:00 Ensoleillé 76   55 59 SSE 2 30.0 30 83
19:00 Ensoleillé 73 60 59 OSO 4 30.1 30 81
18:00 Généralement ensoleillé 74 67 62 SO 5 30.1 30 83
17:00 Généralement ensoleillé 74 68 63 OSO 7 30.1 30 83
16:00 Généralement ensoleillé 74 70 64 O 7 30.1 30 85
15:00 Généralement ensoleillé 74 71 64 SO 10 30.1 30 85
14:00 Généralement ensoleillé 75 69 64 O 10 30.1 30 85
13:00 Généralement ensoleillé 74 66 62 OSO 9 30.1 30 83
12:00 Ensoleillé 74 67 62 O 8 30.1 30 83
11:00 Ensoleillé 72 74 63 O 6 30.1 30 81
N.D.
non disponible
 ↑ 
température la plus haute
 ↓ 
température la plus basse
*
Valeur non significative.

Si vous désirez plus de données historiques sur les conditions météo, s.v.p. visitez Données climatologiques en ligne.